Time;durP1;ratioP1;P1;durP2;ratioP2;P2;SDS_P1;SDS_P2;PMS_P1;PMS_P2;Temp;Humidity;BMP_temperature;BMP_pressure;BME280_temperature;BME280_humidity;BME280_pressure;Samples;Min_cycle;Max_cycle;Signal;HPM_P1;HPM_P2
2021/09/15 00:02:59;;;;;;;3.53;2.71;;;;;;;17.23;92.89;98983.22;2328618;67;34606;-80
2021/09/15 00:06:06;;;;;;;3.29;2.83;;;;;;;17.21;93.01;98979.81;2332326;69;20136;-79
2021/09/15 00:09:09;;;;;;;5.59;2.85;;;;;;;17.20;92.87;98978.97;2329371;69;20152;-79
2021/09/15 00:12:12;;;;;;;4.85;2.88;;;;;;;17.20;92.77;98978.09;2330328;69;20169;-80
2021/09/15 00:15:14;;;;;;;5.28;3.01;;;;;;;17.16;92.72;98982.63;2333056;69;20152;-79
2021/09/15 00:18:17;;;;;;;2.91;2.64;;;;;;;17.14;92.87;98973.94;2331955;69;20155;-80
2021/09/15 00:21:19;;;;;;;3.35;2.81;;;;;;;17.14;92.89;98980.97;2330102;69;20151;-80
2021/09/15 00:24:22;;;;;;;4.76;2.96;;;;;;;17.13;92.83;98979.25;2330710;69;20120;-80
2021/09/15 00:27:25;;;;;;;3.28;3.03;;;;;;;17.11;92.76;98981.94;2334690;69;20151;-80
2021/09/15 00:30:27;;;;;;;3.29;3.03;;;;;;;17.07;93.04;98977.72;2334882;69;20127;-80
2021/09/15 00:33:30;;;;;;;3.25;2.59;;;;;;;17.07;93.06;98971.63;2331726;69;20255;-80
2021/09/15 00:36:33;;;;;;;4.13;3.36;;;;;;;17.07;92.99;98969.84;2332374;69;20145;-80
2021/09/15 00:39:36;;;;;;;7.50;2.86;;;;;;;17.07;92.88;98969.84;2332291;69;20165;-80
2021/09/15 00:42:38;;;;;;;4.85;3.19;;;;;;;17.05;92.87;98960.31;2332434;68;20130;-80
2021/09/15 00:45:41;;;;;;;5.68;2.85;;;;;;;17.06;93.07;98956.81;2333289;68;20108;-80
2021/09/15 00:48:43;;;;;;;2.92;2.61;;;;;;;17.04;93.03;98951.59;2331615;69;20151;-79
2021/09/15 00:51:46;;;;;;;6.44;2.94;;;;;;;17.01;93.29;98950.84;2332701;69;20183;-80
2021/09/15 00:54:49;;;;;;;3.28;2.54;;;;;;;16.99;93.40;98944.81;2331725;69;20253;-80
2021/09/15 00:57:51;;;;;;;3.54;2.69;;;;;;;16.98;93.73;98946.59;2331861;68;20160;-80
2021/09/15 01:00:54;;;;;;;5.35;2.67;;;;;;;16.99;93.64;98942.19;2328640;69;20204;-80
2021/09/15 01:03:58;;;;;;;2.91;2.70;;;;;;;16.98;93.74;98948.34;2331744;68;20223;-80
2021/09/15 01:07:01;;;;;;;5.96;2.90;;;;;;;16.97;93.73;98947.50;2331431;69;20149;-79
2021/09/15 01:10:05;;;;;;;4.49;2.70;;;;;;;16.97;93.67;98950.13;2334388;68;20100;-80
2021/09/15 01:13:08;;;;;;;3.94;2.78;;;;;;;16.94;93.48;98944.13;2333753;69;20140;-80
2021/09/15 01:20:39;;;;;;;3.21;2.50;;;;;;;16.90;93.63;98941.63;2332184;68;20229;-80
2021/09/15 01:23:42;;;;;;;3.01;2.61;;;;;;;16.90;93.60;98943.41;2331507;69;20188;-80
2021/09/15 01:26:44;;;;;;;4.07;2.46;;;;;;;16.87;93.98;98939.09;2332527;69;20200;-80
2021/09/15 01:29:47;;;;;;;3.84;2.72;;;;;;;16.88;94.01;98940.84;2331739;69;20622;-79
2021/09/15 01:32:49;;;;;;;4.31;2.90;;;;;;;16.89;94.14;98934.69;2333990;66;33330;-79
2021/09/15 01:35:52;;;;;;;3.79;2.99;;;;;;;16.88;94.06;98932.13;2330345;69;20207;-80
2021/09/15 01:38:54;;;;;;;7.68;2.51;;;;;;;16.87;94.18;98933.00;2333477;69;20159;-80
2021/09/15 01:41:58;;;;;;;3.76;2.63;;;;;;;16.85;94.29;98926.97;2338138;68;20160;-79
2021/09/15 01:45:04;;;;;;;2.89;2.69;;;;;;;16.86;94.28;98924.28;2331732;69;20164;-79
2021/09/15 01:48:06;;;;;;;7.66;3.39;;;;;;;16.85;93.99;98913.84;2336529;67;23983;-80
2021/09/15 01:51:09;;;;;;;6.61;2.69;;;;;;;16.85;93.76;98922.56;2334884;69;20148;-79
2021/09/15 01:54:12;;;;;;;4.40;2.71;;;;;;;16.85;93.61;98914.69;2330490;68;20136;-79
2021/09/15 01:57:14;;;;;;;3.96;2.92;;;;;;;16.85;93.51;98905.97;2335123;69;20195;-80
2021/09/15 02:00:18;;;;;;;4.24;2.56;;;;;;;16.86;93.36;98910.31;2329102;69;20234;-79
2021/09/15 02:03:20;;;;;;;6.15;2.81;;;;;;;16.84;93.45;98909.53;2332552;69;20155;-80
2021/09/15 02:06:23;;;;;;;6.51;2.39;;;;;;;16.84;93.50;98905.13;2335799;69;20155;-80
2021/09/15 02:09:25;;;;;;;3.51;2.76;;;;;;;16.86;93.38;98900.69;2333102;69;20189;-79
2021/09/15 02:12:28;;;;;;;4.71;2.92;;;;;;;16.86;93.34;98908.53;2337603;68;20100;-80
2021/09/15 02:15:31;;;;;;;3.33;2.19;;;;;;;16.87;93.40;98907.63;2336795;66;23421;-79
2021/09/15 02:18:33;;;;;;;4.09;2.36;;;;;;;16.88;93.37;98905.91;2335477;68;20144;-80
2021/09/15 02:21:36;;;;;;;6.07;2.41;;;;;;;16.89;93.23;98911.09;2331105;69;20151;-80
2021/09/15 02:24:39;;;;;;;3.31;2.59;;;;;;;16.88;93.31;98905.91;2333379;69;20152;-79
2021/09/15 02:27:41;;;;;;;5.64;2.41;;;;;;;16.88;93.16;98900.66;2330531;69;20168;-80
2021/09/15 02:30:44;;;;;;;6.78;2.45;;;;;;;16.88;93.17;98898.03;2341509;68;20129;-80
2021/09/15 02:33:46;;;;;;;3.76;2.40;;;;;;;16.90;93.16;98899.69;2334209;69;20104;-80
2021/09/15 02:36:49;;;;;;;3.74;2.65;;;;;;;16.91;93.36;98895.28;2337642;69;20156;-80
2021/09/15 02:39:51;;;;;;;5.47;2.47;;;;;;;16.91;93.53;98900.53;2334613;69;20132;-80
2021/09/15 02:42:54;;;;;;;3.61;2.44;;;;;;;16.92;93.53;98900.47;2331314;69;20148;-79
2021/09/15 02:45:57;;;;;;;2.90;2.70;;;;;;;16.94;93.63;98904.81;2333060;69;20192;-80
2021/09/15 02:49:00;;;;;;;3.71;2.76;;;;;;;16.94;93.58;98900.41;2334343;69;20132;-80
2021/09/15 02:52:04;;;;;;;3.75;2.92;;;;;;;16.93;93.55;98903.94;2338482;69;20156;-79
2021/09/15 02:55:07;;;;;;;2.45;2.17;;;;;;;16.93;94.05;98911.81;2331741;69;20224;-80
2021/09/15 02:58:09;;;;;;;5.94;2.64;;;;;;;16.94;94.13;98910.03;2332894;69;20169;-80
2021/09/15 03:01:12;;;;;;;2.90;2.64;;;;;;;16.96;93.99;98914.31;2335400;69;20148;-80
2021/09/15 03:04:15;;;;;;;3.97;2.85;;;;;;;16.92;94.26;98923.22;2333411;69;20187;-80
2021/09/15 03:07:18;;;;;;;4.36;3.04;;;;;;;16.89;94.76;98926.81;2331075;69;20192;-80
2021/09/15 03:10:20;;;;;;;3.31;3.11;;;;;;;16.92;95.63;98931.09;2331140;69;20155;-79
2021/09/15 03:13:23;;;;;;;4.06;3.31;;;;;;;16.95;96.27;98930.13;2332482;69;20136;-80
2021/09/15 03:16:26;;;;;;;3.76;2.96;;;;;;;16.99;96.35;98934.31;2334486;69;20136;-79
2021/09/15 03:19:28;;;;;;;3.17;2.81;;;;;;;17.05;95.98;98934.94;2331626;69;20143;-80
2021/09/15 03:22:31;;;;;;;2.80;2.40;;;;;;;17.08;95.77;98924.34;2335110;69;20140;-80
2021/09/15 03:25:35;;;;;;;3.09;2.89;;;;;;;17.12;95.62;98931.19;2333779;69;20104;-79
2021/09/15 03:28:37;;;;;;;3.17;2.66;;;;;;;17.13;95.60;98932.03;2343691;69;20132;-80
2021/09/15 03:31:40;;;;;;;3.15;2.85;;;;;;;17.14;95.77;98936.38;2333037;66;31483;-80
2021/09/15 03:34:42;;;;;;;2.70;2.38;;;;;;;17.14;95.70;98941.63;2333480;69;20468;-80
2021/09/15 03:37:45;;;;;;;6.29;2.28;;;;;;;17.13;95.85;98935.50;2333347;69;20169;-80
2021/09/15 03:40:48;;;;;;;2.64;2.33;;;;;;;17.15;96.05;98945.94;2335043;69;20131;-80
2021/09/15 03:43:51;;;;;;;3.06;2.80;;;;;;;17.16;96.38;98950.28;2335805;69;20100;-81
2021/09/15 03:46:54;;;;;;;3.46;2.71;;;;;;;17.17;96.47;98952.84;2333915;66;32027;-80
2021/09/15 03:49:57;;;;;;;3.31;2.75;;;;;;;17.17;96.80;98949.38;2335735;69;20189;-80
2021/09/15 03:52:59;;;;;;;3.70;2.51;;;;;;;17.21;97.11;98954.44;2335549;69;20215;-81
2021/09/15 03:56:02;;;;;;;4.63;2.36;;;;;;;17.26;97.05;98948.16;2336502;68;20175;-81
2021/09/15 03:59:05;;;;;;;3.49;2.59;;;;;;;17.29;96.87;98954.16;2335523;68;20092;-81
2021/09/15 04:02:08;;;;;;;2.40;2.20;;;;;;;17.31;96.75;98947.06;2345235;66;31695;-80
2021/09/15 04:05:10;;;;;;;3.36;2.55;;;;;;;17.32;96.86;98948.78;2335603;69;20128;-81
2021/09/15 04:08:13;;;;;;;3.28;2.56;;;;;;;17.35;96.68;98946.03;2333203;68;20131;-81
2021/09/15 04:11:20;;;;;;;3.19;2.72;;;;;;;17.38;96.65;98953.78;2333339;69;20131;-81
2021/09/15 04:14:25;;;;;;;4.22;2.88;;;;;;;17.40;96.67;98951.09;2337501;69;20128;-81
2021/09/15 04:17:27;;;;;;;3.22;2.66;;;;;;;17.41;96.60;98943.16;2332266;66;24157;-80
2021/09/15 04:20:30;;;;;;;3.72;2.44;;;;;;;17.44;96.49;98945.69;2341529;68;20169;-81
2021/09/15 04:33:29;;;;;;;4.29;2.75;;;;;;;17.40;96.58;98941.44;2340584;68;20119;-82
2021/09/15 04:36:31;;;;;;;3.01;2.36;;;;;;;17.41;96.42;98943.16;2331122;69;20147;-80
2021/09/15 04:39:34;;;;;;;6.46;2.64;;;;;;;17.40;96.29;98937.97;2335267;68;20192;-81
2021/09/15 04:42:36;;;;;;;2.81;2.59;;;;;;;17.37;96.14;98943.34;2342526;69;20165;-81
2021/09/15 04:45:40;;;;;;;6.00;2.66;;;;;;;17.33;96.21;98931.25;2334069;68;20187;-81
2021/09/15 04:48:42;;;;;;;3.01;2.30;;;;;;;17.33;96.29;98932.13;2335660;69;20116;-82
2021/09/15 04:51:45;;;;;;;5.53;2.66;;;;;;;17.35;96.16;98937.31;2334841;68;20151;-81
2021/09/15 04:54:47;;;;;;;4.01;2.00;;;;;;;17.33;96.26;98934.75;2335493;68;20197;-81
2021/09/15 04:57:51;;;;;;;5.03;2.49;;;;;;;17.34;96.28;98928.56;2332138;69;20143;-81
2021/09/15 05:00:54;;;;;;;2.79;2.29;;;;;;;17.36;96.15;98931.13;2338625;66;27916;-81
2021/09/15 05:03:56;;;;;;;3.14;2.70;;;;;;;17.33;96.42;98918.13;2332884;69;20189;-81
2021/09/15 05:06:59;;;;;;;4.22;2.38;;;;;;;17.36;96.32;98918.00;2332511;69;20159;-80
2021/09/15 05:10:02;;;;;;;4.80;2.63;;;;;;;17.36;96.36;98916.25;2336203;68;20167;-81
2021/09/15 05:13:05;;;;;;;6.61;2.34;;;;;;;17.36;96.30;98913.63;2333032;69;20165;-82
2021/09/15 05:16:08;;;;;;;2.66;2.46;;;;;;;17.39;96.18;98908.25;2338251;66;33390;-81
2021/09/15 05:19:10;;;;;;;2.95;2.71;;;;;;;17.39;96.23;98908.25;2339928;69;20165;-80
2021/09/15 05:22:13;;;;;;;4.81;2.44;;;;;;;17.39;96.19;98905.63;2340926;69;20178;-81
2021/09/15 05:25:17;;;;;;;4.07;2.29;;;;;;;17.38;96.23;98908.31;2339995;69;20132;-81
2021/09/15 06:29:58;;;;;;;11.15;4.20;;;;;;;17.79;99.53;98933.81;2308559;68;20998;-79
2021/09/15 13:37:45;;;;;;;0.82;0.36;;;;;;;21.93;78.46;98937.09;2323045;69;20199;-80
2021/09/15 13:42:27;;;;;;;1.11;0.70;;;;;;;21.65;78.78;98943.94;2315833;69;20180;-79
2021/09/15 14:02:21;;;;;;;2.66;0.71;;;;;;;21.45;80.51;98936.31;2336043;68;20236;-80
2021/09/15 14:06:07;;;;;;;2.46;0.69;;;;;;;21.51;80.70;98935.94;2324137;68;20147;-80
2021/09/15 14:09:47;;;;;;;4.35;0.80;;;;;;;21.50;80.27;98944.81;2326708;68;20261;-81
2021/09/15 14:14:18;;;;;;;4.60;1.05;;;;;;;21.56;81.24;98939.19;2304703;69;20331;-80
2021/09/15 14:35:03;;;;;;;3.53;0.82;;;;;;;21.37;81.13;98925.31;2325840;68;20156;-79
2021/09/15 15:12:52;;;;;;;4.66;1.15;;;;;;;21.40;79.17;98938.34;2331047;68;20713;-79
2021/09/15 15:15:57;;;;;;;3.96;1.00;;;;;;;21.32;79.79;98936.13;2331969;66;68384;-80
2021/09/15 15:19:01;;;;;;;10.49;1.35;;;;;;;21.27;80.14;98942.59;2335115;68;20643;-80
2021/09/15 15:22:05;;;;;;;5.80;0.98;;;;;;;21.21;80.30;98943.78;2332868;68;20150;-80
2021/09/15 15:25:13;;;;;;;7.47;1.35;;;;;;;21.09;80.67;98932.09;2332485;68;20170;-79
2021/09/15 15:28:16;;;;;;;4.51;0.90;;;;;;;21.01;80.88;98944.88;2333160;68;20142;-80
2021/09/15 15:31:19;;;;;;;4.03;0.90;;;;;;;20.95;81.21;98944.31;2333437;68;20190;-80
2021/09/15 15:34:23;;;;;;;5.60;0.98;;;;;;;20.83;81.88;98947.63;2334201;68;20202;-80
2021/09/15 15:37:26;;;;;;;5.74;0.79;;;;;;;20.80;82.10;98938.06;2338775;68;20241;-80
2021/09/15 15:40:29;;;;;;;4.82;0.96;;;;;;;20.78;82.43;98935.50;2334152;68;20171;-80
2021/09/15 15:43:33;;;;;;;3.09;0.93;;;;;;;20.86;82.29;98947.47;2330249;68;20170;-80
2021/09/15 15:46:41;;;;;;;2.26;0.98;;;;;;;20.85;82.37;98943.97;2332839;68;20143;-80
2021/09/15 15:49:50;;;;;;;5.36;1.21;;;;;;;20.80;81.98;98946.00;2336263;68;20220;-80
2021/09/15 15:52:57;;;;;;;4.47;0.91;;;;;;;20.73;81.77;98945.47;2331387;68;20185;-80
2021/09/15 15:56:04;;;;;;;4.69;0.90;;;;;;;20.68;82.47;98947.50;2333808;68;20143;-80
2021/09/15 15:59:08;;;;;;;2.60;1.20;;;;;;;20.69;82.71;98945.72;2329886;68;20207;-80
2021/09/15 16:02:13;;;;;;;2.78;0.94;;;;;;;20.70;82.49;98947.44;2328053;66;23820;-80
2021/09/15 16:05:17;;;;;;;1.95;0.98;;;;;;;20.79;82.84;98947.78;2328158;68;20154;-80
2021/09/15 16:08:20;;;;;;;3.92;1.00;;;;;;;20.88;82.35;98946.44;2333947;68;20239;-80
2021/09/15 16:11:23;;;;;;;4.70;1.25;;;;;;;20.91;81.65;98948.06;2331666;68;20231;-79
2021/09/15 16:14:26;;;;;;;2.54;0.90;;;;;;;21.02;81.56;98937.78;2332563;68;20171;-81
2021/09/15 16:17:29;;;;;;;8.29;1.30;;;;;;;21.05;80.94;98941.13;2316125;68;1233944;-81
2021/09/15 16:20:33;;;;;;;3.41;1.19;;;;;;;21.07;80.79;98941.03;2332690;68;20267;-80
2021/09/15 16:23:38;;;;;;;4.04;0.90;;;;;;;21.09;80.91;98944.44;2333718;68;20216;-80
2021/09/15 16:26:41;;;;;;;5.03;1.15;;;;;;;21.00;80.53;98937.84;2332932;68;20151;-80
2021/09/15 16:29:45;;;;;;;6.94;1.20;;;;;;;20.92;80.84;98939.22;2330540;68;20662;-80
2021/09/15 16:32:50;;;;;;;2.33;0.80;;;;;;;20.94;81.28;98940.81;2329272;68;20232;-80
2021/09/15 16:35:52;;;;;;;3.45;1.30;;;;;;;20.91;81.71;98943.63;2334243;68;20154;-80
2021/09/15 16:38:55;;;;;;;4.31;1.13;;;;;;;20.87;81.56;98938.63;2331195;68;20147;-80
2021/09/15 16:42:07;;;;;;;6.66;1.59;;;;;;;20.88;81.82;98941.16;2326977;68;20264;-80
2021/09/15 16:45:10;;;;;;;2.22;0.91;;;;;;;20.82;81.92;98938.84;2324564;68;20223;-80
2021/09/15 16:48:14;;;;;;;3.54;1.21;;;;;;;20.78;82.30;98935.50;2331426;66;38277;-79
2021/09/15 16:51:17;;;;;;;6.38;0.91;;;;;;;20.76;82.26;98931.25;2331172;68;20296;-80
2021/09/15 16:54:24;;;;;;;4.51;0.95;;;;;;;20.77;82.82;98930.31;2330363;68;20139;-80
2021/09/15 16:57:29;;;;;;;2.21;1.00;;;;;;;20.78;83.41;98924.09;2332238;68;20272;-80
2021/09/15 17:00:32;;;;;;;4.09;1.02;;;;;;;20.80;83.08;98930.16;2329540;66;26691;-80
2021/09/15 17:03:35;;;;;;;1.76;1.04;;;;;;;20.84;83.37;98920.31;2330433;68;20142;-80
2021/09/15 17:06:39;;;;;;;3.11;0.90;;;;;;;20.88;83.47;98930.63;2329978;68;20260;-80
2021/09/15 17:09:42;;;;;;;2.86;1.26;;;;;;;20.87;83.10;98935.97;2331175;68;20159;-80
2021/09/15 17:12:47;;;;;;;3.20;0.90;;;;;;;20.74;83.26;98938.41;2331877;68;20151;-79
2021/09/15 17:15:49;;;;;;;2.36;0.94;;;;;;;20.68;83.38;98947.50;2322033;65;21268;-79
2021/09/15 17:18:52;;;;;;;1.98;0.84;;;;;;;20.65;83.82;98944.19;2330798;68;20204;-79
2021/09/15 17:21:55;;;;;;;2.33;1.10;;;;;;;20.59;84.03;98941.84;2329891;68;20177;-79
2021/09/15 17:24:58;;;;;;;3.08;1.11;;;;;;;20.53;84.23;98945.66;2328826;68;20263;-80
2021/09/15 17:28:00;;;;;;;1.88;1.00;;;;;;;20.44;84.37;98943.50;2329724;68;20151;-80
2021/09/15 17:31:03;;;;;;;3.05;0.90;;;;;;;20.34;84.73;98943.09;2328102;66;22908;-79
2021/09/15 17:34:06;;;;;;;2.08;1.04;;;;;;;20.26;85.06;98941.78;2328926;68;20151;-80
2021/09/15 17:37:08;;;;;;;4.00;1.10;;;;;;;20.16;85.55;98944.88;2329962;68;20227;-80
2021/09/15 17:40:12;;;;;;;2.61;1.00;;;;;;;20.06;85.92;98948.91;2330032;68;20259;-80
2021/09/15 17:43:15;;;;;;;4.64;1.00;;;;;;;19.97;86.60;98966.97;2330545;68;20604;-79
2021/09/15 17:46:18;;;;;;;1.58;0.96;;;;;;;19.84;87.31;98959.66;2336572;68;20151;-80
2021/09/15 17:49:25;;;;;;;3.42;1.10;;;;;;;19.77;87.90;98965.31;2337165;68;20154;-80
2021/09/15 17:52:27;;;;;;;2.63;1.23;;;;;;;19.72;88.36;98967.31;2333384;68;20266;-80
2021/09/15 17:55:31;;;;;;;3.36;1.20;;;;;;;19.68;88.70;98971.03;2328987;68;20171;-79
2021/09/15 17:58:37;;;;;;;2.84;1.13;;;;;;;19.64;89.02;98969.47;2332835;68;20147;-80
2021/09/15 18:01:41;;;;;;;1.52;1.04;;;;;;;19.63;89.12;98976.50;2332526;68;20272;-80
2021/09/15 18:04:47;;;;;;;1.81;1.09;;;;;;;19.60;89.20;98982.78;2331495;68;20240;-80
2021/09/15 18:07:53;;;;;;;2.05;1.23;;;;;;;19.60;89.37;98989.84;2330945;68;20199;-80
2021/09/15 18:10:56;;;;;;;4.61;1.14;;;;;;;19.58;89.53;98982.00;2331982;68;20155;-80
2021/09/15 18:13:59;;;;;;;4.40;1.20;;;;;;;19.57;89.61;98992.63;2332851;68;20180;-80
2021/09/15 18:17:32;;;;;;;2.03;1.10;;;;;;;19.51;89.76;98993.72;2336194;68;20139;-81
2021/09/15 18:21:14;;;;;;;2.66;1.21;;;;;;;19.47;90.29;98991.31;2335003;68;20228;-81
2021/09/15 18:25:18;;;;;;;2.83;1.17;;;;;;;19.46;90.57;98992.22;2338503;68;20108;-80
2021/09/15 18:29:18;;;;;;;2.81;1.16;;;;;;;19.37;90.67;99001.38;2335459;68;20257;-81
2021/09/15 18:32:53;;;;;;;2.34;1.10;;;;;;;19.28;90.75;98997.41;2334631;68;20152;-81
2021/09/15 18:36:24;;;;;;;2.90;1.36;;;;;;;19.24;90.94;98998.50;2342455;68;20163;-81
2021/09/15 18:40:05;;;;;;;5.38;1.42;;;;;;;19.16;91.31;98997.97;2342172;68;20215;-80
2021/09/15 18:43:21;;;;;;;4.01;1.25;;;;;;;19.12;91.76;98999.03;2339164;68;20192;-81
2021/09/15 19:22:37;;;;;;;4.00;1.40;;;;;;;18.98;93.82;99043.53;2328554;69;20183;-80
2021/09/15 19:35:11;;;;;;;2.66;1.17;;;;;;;18.96;93.86;99051.50;2339581;68;20158;-80
2021/09/15 19:38:44;;;;;;;4.16;1.29;;;;;;;18.97;93.82;99053.22;2330265;68;20280;-79
2021/09/15 19:42:07;;;;;;;2.89;1.04;;;;;;;18.95;93.82;99043.69;2336148;68;20159;-79
2021/09/15 19:45:44;;;;;;;3.09;1.10;;;;;;;18.94;93.81;99047.22;2337630;68;20135;-80
2021/09/15 20:01:37;;;;;;;3.55;1.06;;;;;;;18.65;94.12;99046.72;2327111;68;20402;-80
2021/09/15 20:05:16;;;;;;;3.99;1.20;;;;;;;18.62;94.41;99049.44;2330915;69;20270;-80
2021/09/15 20:16:36;;;;;;;7.84;1.14;;;;;;;18.60;94.99;99043.41;2308605;68;1565769;-81
2021/09/15 20:40:47;;;;;;;2.42;1.04;;;;;;;18.18;94.73;99050.44;2340376;68;20175;-81
2021/09/15 20:44:48;;;;;;;3.21;1.21;;;;;;;18.11;95.58;99061.19;2332341;68;20675;-81
2021/09/15 20:48:17;;;;;;;3.60;1.10;;;;;;;18.13;95.83;99058.50;2327309;65;265703;-81
2021/09/15 20:51:54;;;;;;;4.93;1.11;;;;;;;18.13;96.29;99063.75;2328935;68;20261;-80
2021/09/15 20:55:04;;;;;;;3.41;1.19;;;;;;;18.19;96.48;99057.41;2327283;68;20151;-81
2021/09/15 20:58:13;;;;;;;2.69;1.11;;;;;;;18.21;96.59;99059.06;2322639;68;20598;-80
2021/09/15 21:01:33;;;;;;;1.55;1.40;;;;;;;18.26;96.55;99056.25;2311214;68;1266829;-80
2021/09/15 21:04:42;;;;;;;1.75;1.19;;;;;;;18.28;96.41;99054.41;2328889;68;20229;-81
2021/09/15 21:07:45;;;;;;;2.51;1.14;;;;;;;18.27;96.44;99056.16;2343417;68;20123;-81
2021/09/15 21:10:53;;;;;;;2.71;1.29;;;;;;;18.26;96.31;99057.09;2351589;68;20278;-81
2021/09/15 21:13:56;;;;;;;2.70;1.71;;;;;;;18.26;96.39;99062.34;2341485;68;20159;-82
2021/09/15 21:16:59;;;;;;;2.28;1.60;;;;;;;18.24;96.63;99061.56;2342750;65;50326;-82
2021/09/15 21:29:34;;;;;;;3.40;1.33;;;;;;;18.36;97.21;99062.84;2331693;68;20115;-83
2021/09/15 21:38:17;;;;;;;6.18;1.98;;;;;;;18.43;96.80;99053.75;2334947;69;20190;-82
